createdAt,value
2022-12-16T02:01:03.615Z,76.16
2022-12-16T02:03:50.465Z,75.78
2022-12-16T02:06:36.316Z,76.30
2022-12-16T02:09:21.874Z,75.97
2022-12-16T02:12:21.367Z,76.39
2022-12-16T02:15:15.930Z,75.54
2022-12-16T02:18:30.056Z,75.51
2022-12-16T02:21:39.068Z,75.81
2022-12-16T02:24:41.419Z,75.61
2022-12-16T02:27:55.888Z,75.61
2022-12-16T02:31:00.775Z,75.49
2022-12-16T02:34:21.530Z,75.06
2022-12-16T02:37:10.208Z,75.60
2022-12-16T02:40:16.811Z,74.86
2022-12-16T02:43:12.794Z,74.46
2022-12-16T02:45:58.852Z,74.48
2022-12-16T02:48:44.153Z,74.68
2022-12-16T02:51:29.326Z,74.24
2022-12-16T02:54:17.449Z,74.24
2022-12-16T02:57:14.874Z,73.66
2022-12-16T03:00:06.225Z,74.09
2022-12-16T03:02:59.311Z,74.28
2022-12-16T03:05:50.517Z,74.04
2022-12-16T03:08:40.842Z,73.93
2022-12-16T03:11:29.331Z,74.04
2022-12-16T03:14:18.519Z,74.62
2022-12-16T03:17:04.595Z,73.90
2022-12-16T03:19:58.334Z,74.19
2022-12-16T03:22:46.619Z,73.64
2022-12-16T03:25:35.585Z,74.78
2022-12-16T03:29:09.142Z,75.01
2022-12-16T03:32:04.293Z,75.34
2022-12-16T03:34:57.927Z,75.04
2022-12-16T03:37:45.466Z,74.90
2022-12-16T03:40:32.717Z,74.99
2022-12-16T03:43:18.561Z,75.17
2022-12-16T03:46:07.388Z,74.94
2022-12-16T03:48:52.748Z,74.96
2022-12-16T03:51:38.197Z,75.24
2022-12-16T03:54:24.285Z,74.71
2022-12-16T03:57:15.042Z,74.24
2022-12-16T04:00:01.071Z,73.87
2022-12-16T04:02:47.188Z,73.65
2022-12-16T04:05:32.503Z,73.76
2022-12-16T04:08:18.021Z,73.22
2022-12-16T04:11:22.324Z,73.60
2022-12-16T04:14:29.785Z,72.83
2022-12-16T04:17:33.902Z,72.75
2022-12-16T04:20:38.374Z,72.45
2022-12-16T04:23:44.785Z,72.89
2022-12-16T04:26:30.060Z,73.14
2022-12-16T04:29:15.388Z,72.84
2022-12-16T04:32:01.230Z,72.64
2022-12-16T04:34:46.686Z,72.72
2022-12-16T04:37:50.660Z,72.42
2022-12-16T04:40:54.390Z,72.44
2022-12-16T04:43:59.147Z,72.62
2022-12-16T04:47:03.148Z,72.28
2022-12-16T04:50:06.747Z,71.88
2022-12-16T04:53:11.675Z,71.60
2022-12-16T04:56:15.493Z,72.15
2022-12-16T04:59:19.195Z,72.97
2022-12-16T05:02:23.172Z,72.82
2022-12-16T05:05:27.144Z,72.36
2022-12-16T05:08:30.936Z,72.55
2022-12-16T05:11:34.791Z,72.44
2022-12-16T05:14:38.612Z,72.18
2022-12-16T05:17:42.825Z,72.43
2022-12-16T05:20:46.570Z,72.85
2022-12-16T05:23:50.430Z,72.86
2022-12-16T05:26:54.217Z,73.22
2022-12-16T05:29:57.952Z,73.29
2022-12-16T05:33:01.776Z,72.65
2022-12-16T05:36:05.480Z,73.44
2022-12-16T05:39:10.835Z,73.29
2022-12-16T05:42:15.275Z,72.80
2022-12-16T05:45:19.023Z,73.14
2022-12-16T05:48:22.986Z,72.67
2022-12-16T05:51:26.743Z,72.23
2022-12-16T05:54:30.707Z,72.58
2022-12-16T05:57:34.527Z,71.95
2022-12-16T06:00:38.318Z,71.69
2022-12-16T06:03:42.061Z,71.99
2022-12-16T06:06:46.260Z,72.38
2022-12-16T06:09:56.083Z,71.96
2022-12-16T06:13:00.596Z,71.94
2022-12-16T06:16:08.527Z,72.08
2022-12-16T06:19:13.096Z,72.34
2022-12-16T06:22:16.789Z,71.87
2022-12-16T06:25:20.871Z,71.94
2022-12-16T06:28:24.696Z,72.31
2022-12-16T06:31:29.212Z,71.64
2022-12-16T06:34:32.923Z,71.67
2022-12-16T06:37:36.659Z,72.68
2022-12-16T06:40:40.568Z,72.15
2022-12-16T06:43:44.396Z,71.91
2022-12-16T06:46:48.367Z,71.50
2022-12-16T06:49:52.026Z,72.00
2022-12-16T06:52:55.862Z,72.00
2022-12-16T06:55:59.912Z,72.71
2022-12-16T06:59:03.832Z,72.86
2022-12-16T07:02:07.766Z,72.63
2022-12-16T07:05:12.149Z,72.88
2022-12-16T07:08:16.036Z,73.06
2022-12-16T07:11:19.774Z,72.61
2022-12-16T07:14:23.501Z,72.16
2022-12-16T07:17:27.406Z,72.61
2022-12-16T07:20:31.296Z,72.61
2022-12-16T07:23:35.464Z,72.82
2022-12-16T07:26:39.573Z,72.13
2022-12-16T07:29:43.625Z,72.37
2022-12-16T07:32:47.504Z,71.97
2022-12-16T07:35:51.396Z,71.94
2022-12-16T07:38:55.177Z,71.53
2022-12-16T07:41:58.961Z,72.13
2022-12-16T07:45:02.974Z,72.33
2022-12-16T07:48:10.016Z,72.50
2022-12-16T07:51:14.009Z,72.56
2022-12-16T07:54:17.868Z,72.61
2022-12-16T07:57:21.735Z,72.66
2022-12-16T08:00:25.939Z,72.55
2022-12-16T08:03:30.134Z,72.82
2022-12-16T08:06:40.053Z,72.33
2022-12-16T08:09:43.986Z,73.08
2022-12-16T08:12:47.575Z,72.84
2022-12-16T08:15:51.256Z,72.57
2022-12-16T08:18:55.073Z,72.26
2022-12-16T08:21:58.875Z,72.40
2022-12-16T08:25:02.577Z,71.75
2022-12-16T08:28:13.037Z,71.25
2022-12-16T08:31:16.800Z,71.26
2022-12-16T08:34:20.460Z,71.14
2022-12-16T08:37:24.718Z,71.10
2022-12-16T08:40:36.916Z,70.41
2022-12-16T08:43:40.902Z,69.92
2022-12-16T08:46:44.754Z,69.54
2022-12-16T08:49:48.506Z,68.83
2022-12-16T08:52:52.389Z,69.07
2022-12-16T08:55:56.076Z,67.75
2022-12-16T08:59:00.036Z,68.04
2022-12-16T09:02:03.982Z,67.48
2022-12-16T09:05:08.241Z,67.63
2022-12-16T09:08:17.523Z,66.30
2022-12-16T09:11:21.180Z,65.55
2022-12-16T09:14:24.981Z,64.79
2022-12-16T09:17:48.075Z,65.47
2022-12-16T09:20:54.478Z,65.12
2022-12-16T09:23:59.972Z,64.79
2022-12-16T09:27:03.667Z,65.03
2022-12-16T09:30:07.559Z,65.25
2022-12-16T09:33:11.320Z,64.92
2022-12-16T09:36:15.305Z,64.12
2022-12-16T09:39:19.119Z,63.70
2022-12-16T09:42:51.442Z,63.41
2022-12-16T09:46:07.887Z,63.29
2022-12-16T09:49:31.660Z,62.97
2022-12-16T09:52:38.636Z,62.83
2022-12-16T09:55:51.325Z,62.86
2022-12-16T09:59:01.584Z,61.76
2022-12-16T10:02:06.205Z,62.29
2022-12-16T10:05:10.888Z,63.03
2022-12-16T10:08:48.658Z,63.55
2022-12-16T10:12:06.581Z,63.95
2022-12-16T10:15:30.853Z,65.66
2022-12-16T10:19:13.170Z,64.24
2022-12-16T10:22:36.490Z,63.49
2022-12-16T10:26:20.912Z,62.83
2022-12-16T10:29:38.389Z,62.23
2022-12-16T10:33:15.746Z,62.99
2022-12-16T10:36:19.733Z,62.56
2022-12-16T10:39:46.561Z,63.64
2022-12-16T10:42:55.521Z,63.81
2022-12-16T10:46:04.912Z,62.91
2022-12-16T10:49:09.543Z,62.33
2022-12-16T10:52:13.496Z,63.53
2022-12-16T10:55:20.840Z,63.59
2022-12-16T10:58:35.496Z,62.93
2022-12-16T11:01:45.875Z,63.99
2022-12-16T11:04:55.946Z,64.67
2022-12-16T11:08:06.303Z,65.68
2022-12-16T11:11:10.326Z,65.87
2022-12-16T11:14:35.726Z,65.88
2022-12-16T11:17:43.193Z,65.95
2022-12-16T11:20:47.314Z,66.10
2022-12-16T11:23:51.412Z,65.85
2022-12-16T11:26:55.144Z,65.35
2022-12-16T11:30:19.359Z,65.59
2022-12-16T11:33:34.004Z,65.36
2022-12-16T11:36:42.956Z,64.58
2022-12-16T11:39:51.118Z,64.83
2022-12-16T11:42:55.102Z,64.25
2022-12-16T11:46:00.335Z,64.13
2022-12-16T11:49:21.926Z,63.61
2022-12-16T11:52:38.945Z,64.53
2022-12-16T11:56:16.719Z,64.53
2022-12-16T11:59:20.017Z,65.13
2022-12-16T12:02:46.421Z,65.41
2022-12-16T12:06:19.771Z,65.17
2022-12-16T12:09:36.270Z,65.83
2022-12-16T12:12:57.106Z,65.95
2022-12-16T12:16:14.222Z,66.29
2022-12-16T12:19:23.776Z,66.16
2022-12-16T12:22:49.499Z,66.40
2022-12-16T12:26:01.472Z,67.00
2022-12-16T12:29:31.134Z,67.22
2022-12-16T12:33:10.507Z,67.70
2022-12-16T12:36:36.190Z,68.35
2022-12-16T12:39:50.867Z,68.60
2022-12-16T12:43:10.121Z,69.05
2022-12-16T12:46:28.727Z,69.12
2022-12-16T12:49:48.283Z,69.19
2022-12-16T12:53:17.911Z,68.28
2022-12-16T12:56:32.510Z,66.93
2022-12-16T13:00:09.181Z,66.75
2022-12-16T13:03:50.313Z,66.44
2022-12-16T13:07:02.804Z,66.71
2022-12-16T13:10:38.694Z,66.94
2022-12-16T13:13:54.340Z,66.99
2022-12-16T13:17:02.858Z,67.45
2022-12-16T13:20:15.976Z,67.97
2022-12-16T13:23:55.346Z,67.67
2022-12-16T13:27:19.276Z,67.82
2022-12-16T13:30:29.249Z,67.88
2022-12-16T13:33:43.309Z,68.23
2022-12-16T13:36:53.192Z,68.65
2022-12-16T13:39:59.196Z,69.02
2022-12-16T13:43:02.897Z,68.97
2022-12-16T13:46:16.128Z,69.25
2022-12-16T13:49:54.953Z,69.56
2022-12-16T13:52:58.795Z,69.95
2022-12-16T13:56:24.015Z,69.80
2022-12-16T13:59:44.173Z,69.76
2022-12-16T14:02:57.332Z,69.54
2022-12-16T14:06:02.116Z,69.82
2022-12-16T14:09:07.556Z,69.70
2022-12-16T14:12:23.960Z,69.40
2022-12-16T14:15:41.086Z,68.24
2022-12-16T14:18:55.517Z,68.68
2022-12-16T14:22:06.414Z,69.29
2022-12-16T14:25:10.341Z,68.97
2022-12-16T14:28:18.800Z,68.96
2022-12-16T14:31:25.074Z,69.30
2022-12-16T14:34:34.794Z,69.96
2022-12-16T14:37:57.570Z,69.72
2022-12-16T14:41:01.495Z,70.15
2022-12-16T14:44:05.390Z,70.12
2022-12-16T14:47:10.851Z,70.08
2022-12-16T14:50:18.291Z,70.30
2022-12-16T14:53:34.385Z,70.64
2022-12-16T14:56:59.832Z,70.70
2022-12-16T15:00:03.711Z,71.16
2022-12-16T15:03:13.495Z,71.20
2022-12-16T15:06:36.358Z,69.88
2022-12-16T15:09:46.794Z,70.21
2022-12-16T15:12:57.043Z,69.58
2022-12-16T15:16:11.721Z,68.30
2022-12-16T15:19:20.042Z,68.04
2022-12-16T15:22:24.139Z,67.49
2022-12-16T15:25:37.878Z,66.92
2022-12-16T15:28:55.690Z,67.40
2022-12-16T15:32:03.096Z,67.50
2022-12-16T15:35:07.842Z,67.54
2022-12-16T15:38:11.811Z,67.72
2022-12-16T15:41:15.746Z,68.31
2022-12-16T15:44:19.469Z,67.93
2022-12-16T15:47:35.555Z,68.46
2022-12-16T15:50:43.595Z,68.38
2022-12-16T15:53:50.589Z,68.53
2022-12-16T15:57:03.465Z,67.90
2022-12-16T16:00:14.312Z,69.20
2022-12-16T16:03:18.426Z,68.81
2022-12-16T16:06:22.583Z,69.27
2022-12-16T16:09:34.569Z,69.11
2022-12-16T16:12:40.789Z,68.61
2022-12-16T16:15:45.702Z,69.18
2022-12-16T16:18:49.991Z,69.07
2022-12-16T16:21:53.789Z,69.83
2022-12-16T16:24:57.810Z,69.70
2022-12-16T16:28:04.209Z,69.97
2022-12-16T16:31:08.215Z,69.91
2022-12-16T16:34:11.909Z,70.16
2022-12-16T16:37:17.283Z,70.07
2022-12-16T16:40:35.081Z,71.74
2022-12-16T16:43:40.049Z,70.62
2022-12-16T16:46:50.078Z,71.16
2022-12-16T16:49:59.448Z,71.27
2022-12-16T16:53:03.635Z,70.71
2022-12-16T16:56:18.167Z,71.17
2022-12-16T16:59:24.118Z,71.00
2022-12-16T17:02:41.193Z,70.61
2022-12-16T17:05:45.472Z,71.02
2022-12-16T17:08:49.464Z,70.69
2022-12-16T17:11:54.002Z,71.36
2022-12-16T17:14:57.954Z,70.67
2022-12-16T17:18:01.951Z,70.88
2022-12-16T17:21:05.653Z,70.99
2022-12-16T17:24:09.557Z,71.18
2022-12-16T17:27:13.305Z,71.41
2022-12-16T17:30:17.287Z,71.40
2022-12-16T17:33:21.982Z,71.79
2022-12-16T17:36:32.064Z,71.86
2022-12-16T17:39:35.994Z,72.00
2022-12-16T17:42:44.775Z,71.90
2022-12-16T17:45:50.259Z,71.85
2022-12-16T17:48:54.196Z,72.40
2022-12-16T17:51:58.063Z,72.35
2022-12-16T17:55:01.903Z,73.12
2022-12-16T17:58:05.940Z,73.12
2022-12-16T18:01:10.250Z,73.46
2022-12-16T18:04:15.331Z,73.71
2022-12-16T18:07:19.702Z,73.95
2022-12-16T18:10:24.102Z,73.47
2022-12-16T18:13:27.647Z,73.72
2022-12-16T18:16:31.540Z,74.17
2022-12-16T18:19:36.303Z,74.27
2022-12-16T18:22:40.127Z,74.61
2022-12-16T18:25:44.004Z,74.27
2022-12-16T18:28:48.590Z,74.80
2022-12-16T18:31:52.375Z,75.02
2022-12-16T18:34:56.316Z,74.80
2022-12-16T18:38:00.197Z,74.96
2022-12-16T18:41:04.496Z,75.67
2022-12-16T18:44:08.988Z,75.90
2022-12-16T18:47:12.783Z,76.11
2022-12-16T18:50:16.424Z,75.82
2022-12-16T18:53:20.428Z,75.55
2022-12-16T18:56:27.090Z,76.05
2022-12-16T18:59:30.909Z,75.63
2022-12-16T19:02:34.789Z,75.82
2022-12-16T19:05:38.525Z,75.72
2022-12-16T19:08:42.331Z,76.02
2022-12-16T19:11:46.860Z,76.40
2022-12-16T19:14:50.926Z,76.09
2022-12-16T19:17:54.815Z,75.96
2022-12-16T19:20:58.875Z,75.45
2022-12-16T19:24:02.822Z,75.72
2022-12-16T19:27:11.939Z,76.21
2022-12-16T19:30:18.882Z,76.78
2022-12-16T19:33:22.749Z,77.70
2022-12-16T19:36:26.577Z,77.81
2022-12-16T19:39:30.268Z,77.57
2022-12-16T19:42:34.351Z,78.32
2022-12-16T19:45:56.403Z,78.57
2022-12-16T19:49:00.780Z,78.58
2022-12-16T19:52:04.563Z,78.62
2022-12-16T19:55:11.663Z,78.79
2022-12-16T19:58:19.917Z,79.11
2022-12-16T20:01:27.840Z,79.45
2022-12-16T20:04:39.854Z,78.80
2022-12-16T20:07:43.661Z,79.50
2022-12-16T20:10:48.293Z,80.21
2022-12-16T20:13:52.003Z,80.38
2022-12-16T20:16:56.553Z,80.76
2022-12-16T20:20:00.348Z,80.14
2022-12-16T20:23:04.247Z,80.42
2022-12-16T20:26:19.235Z,80.57
2022-12-16T20:29:23.166Z,80.77
2022-12-16T20:32:26.897Z,80.53
2022-12-16T20:35:30.663Z,80.98
2022-12-16T20:38:34.487Z,80.69
2022-12-16T20:41:38.254Z,80.90
2022-12-16T20:44:42.247Z,81.03
2022-12-16T20:47:46.173Z,80.79
2022-12-16T20:50:49.913Z,80.68
2022-12-16T20:54:10.476Z,80.84
2022-12-16T20:57:14.554Z,80.92
2022-12-16T21:00:18.556Z,80.79
2022-12-16T21:03:26.485Z,81.33
2022-12-16T21:06:30.460Z,81.31
2022-12-16T21:09:34.353Z,81.33
2022-12-16T21:12:38.253Z,82.27
2022-12-16T21:15:42.079Z,82.58
2022-12-16T21:18:46.012Z,83.54
2022-12-16T21:21:49.851Z,83.28
2022-12-16T21:24:53.549Z,83.33
2022-12-16T21:27:57.278Z,83.67
2022-12-16T21:31:01.179Z,83.66
2022-12-16T21:34:05.125Z,83.41
2022-12-16T21:37:09.423Z,83.56
2022-12-16T21:40:13.203Z,83.71
2022-12-16T21:43:16.898Z,83.52
2022-12-16T21:46:20.847Z,83.70
2022-12-16T21:49:24.701Z,84.11
2022-12-16T21:52:45.317Z,84.19
2022-12-16T21:55:49.467Z,84.09
2022-12-16T21:59:06.895Z,83.81
2022-12-16T22:02:24.723Z,84.66
2022-12-16T22:05:28.658Z,84.92
2022-12-16T22:08:32.365Z,84.71
2022-12-16T22:11:36.208Z,84.92
2022-12-16T22:14:40.006Z,84.64
2022-12-16T22:17:43.819Z,84.86
2022-12-16T22:20:47.513Z,84.99
2022-12-16T22:23:51.478Z,84.76
2022-12-16T22:26:56.606Z,84.42
2022-12-16T22:30:00.704Z,83.99
2022-12-16T22:33:05.575Z,83.25
2022-12-16T22:36:09.281Z,83.55
2022-12-16T22:39:13.586Z,83.84
2022-12-16T22:42:17.537Z,83.56
2022-12-16T22:45:21.304Z,84.30
2022-12-16T22:48:25.035Z,84.26
2022-12-16T22:51:38.986Z,84.62
2022-12-16T22:54:43.128Z,85.06
2022-12-16T22:57:50.816Z,85.13
2022-12-16T23:00:56.389Z,84.79
2022-12-16T23:04:00.754Z,84.90
2022-12-16T23:07:04.515Z,84.91
2022-12-16T23:10:08.325Z,84.61
2022-12-16T23:13:12.852Z,84.36
2022-12-16T23:16:16.898Z,85.18
2022-12-16T23:19:21.125Z,84.71
2022-12-16T23:22:25.211Z,85.22
2022-12-16T23:25:29.167Z,84.84
2022-12-16T23:28:33.226Z,84.71
2022-12-16T23:31:47.676Z,84.67
2022-12-16T23:34:52.164Z,85.16
2022-12-16T23:37:56.173Z,85.54
2022-12-16T23:40:59.910Z,85.56
2022-12-16T23:44:04.329Z,85.23
2022-12-16T23:47:17.403Z,85.01
2022-12-16T23:50:23.507Z,84.90
2022-12-16T23:53:29.798Z,84.38
2022-12-16T23:56:35.280Z,84.52
2022-12-16T23:59:39.765Z,84.40
